sensor_id;sensor_type;location;lat;lon;timestamp;temperature;humidity
26537;DHT22;14204;51.262;5.488;2022-07-26T00:02:04;21.80;99.90
26537;DHT22;14204;51.262;5.488;2022-07-26T00:04:30;21.80;99.90
26537;DHT22;14204;51.262;5.488;2022-07-26T00:06:56;21.80;99.90
26537;DHT22;14204;51.262;5.488;2022-07-26T00:09:21;21.80;99.90
26537;DHT22;14204;51.262;5.488;2022-07-26T00:11:56;21.80;99.90
26537;DHT22;14204;51.262;5.488;2022-07-26T00:14:22;21.90;99.90
26537;DHT22;14204;51.262;5.488;2022-07-26T00:16:47;21.70;99.90
26537;DHT22;14204;51.262;5.488;2022-07-26T00:19:13;21.80;99.90
26537;DHT22;14204;51.262;5.488;2022-07-26T00:21:39;21.80;99.90
26537;DHT22;14204;51.262;5.488;2022-07-26T00:24:05;21.80;99.90
26537;DHT22;14204;51.262;5.488;2022-07-26T00:26:31;21.70;99.90
26537;DHT22;14204;51.262;5.488;2022-07-26T00:28:57;21.70;99.90
26537;DHT22;14204;51.262;5.488;2022-07-26T00:31:24;21.70;99.90
26537;DHT22;14204;51.262;5.488;2022-07-26T00:33:49;21.70;99.90
26537;DHT22;14204;51.262;5.488;2022-07-26T00:36:15;21.60;99.90
26537;DHT22;14204;51.262;5.488;2022-07-26T00:38:41;21.60;99.90
26537;DHT22;14204;51.262;5.488;2022-07-26T00:41:06;21.50;99.90
26537;DHT22;14204;51.262;5.488;2022-07-26T00:43:33;21.40;99.90
26537;DHT22;14204;51.262;5.488;2022-07-26T00:45:59;21.50;99.90
26537;DHT22;14204;51.262;5.488;2022-07-26T00:48:24;21.40;99.90
26537;DHT22;14204;51.262;5.488;2022-07-26T00:50:52;21.40;99.90
26537;DHT22;14204;51.262;5.488;2022-07-26T00:53:20;21.40;99.90
26537;DHT22;14204;51.262;5.488;2022-07-26T00:55:47;21.40;99.90
26537;DHT22;14204;51.262;5.488;2022-07-26T00:58:13;21.40;99.90
26537;DHT22;14204;51.262;5.488;2022-07-26T01:00:39;21.30;99.90
26537;DHT22;14204;51.262;5.488;2022-07-26T01:03:04;21.30;99.90
26537;DHT22;14204;51.262;5.488;2022-07-26T01:05:31;21.30;99.90
26537;DHT22;14204;51.262;5.488;2022-07-26T01:07:58;21.30;99.90
26537;DHT22;14204;51.262;5.488;2022-07-26T01:10:24;21.30;99.90
26537;DHT22;14204;51.262;5.488;2022-07-26T01:12:50;21.30;99.90
26537;DHT22;14204;51.262;5.488;2022-07-26T01:15:16;21.30;99.90
26537;DHT22;14204;51.262;5.488;2022-07-26T01:17:42;21.30;99.90
26537;DHT22;14204;51.262;5.488;2022-07-26T01:20:09;21.20;99.90
26537;DHT22;14204;51.262;5.488;2022-07-26T01:22:35;21.20;99.90
26537;DHT22;14204;51.262;5.488;2022-07-26T01:25:00;21.20;99.90
26537;DHT22;14204;51.262;5.488;2022-07-26T01:27:26;21.20;99.90
26537;DHT22;14204;51.262;5.488;2022-07-26T01:29:52;21.20;99.90
26537;DHT22;14204;51.262;5.488;2022-07-26T01:32:18;21.20;99.90
26537;DHT22;14204;51.262;5.488;2022-07-26T01:34:44;21.20;99.90
26537;DHT22;14204;51.262;5.488;2022-07-26T01:37:10;21.20;99.90
26537;DHT22;14204;51.262;5.488;2022-07-26T01:39:35;21.10;99.90
26537;DHT22;14204;51.262;5.488;2022-07-26T01:42:01;21.20;99.90
26537;DHT22;14204;51.262;5.488;2022-07-26T01:44:27;21.20;99.90
26537;DHT22;14204;51.262;5.488;2022-07-26T01:46:52;21.10;99.90
26537;DHT22;14204;51.262;5.488;2022-07-26T01:49:18;21.20;99.90
26537;DHT22;14204;51.262;5.488;2022-07-26T01:51:44;21.20;99.90
26537;DHT22;14204;51.262;5.488;2022-07-26T01:54:10;21.20;99.90
26537;DHT22;14204;51.262;5.488;2022-07-26T01:56:35;21.20;99.90
26537;DHT22;14204;51.262;5.488;2022-07-26T01:59:01;21.10;99.90
26537;DHT22;14204;51.262;5.488;2022-07-26T02:01:27;21.10;99.90
26537;DHT22;14204;51.262;5.488;2022-07-26T02:03:53;21.10;99.90
26537;DHT22;14204;51.262;5.488;2022-07-26T02:06:19;21.10;99.90
26537;DHT22;14204;51.262;5.488;2022-07-26T02:08:44;21.10;99.90
26537;DHT22;14204;51.262;5.488;2022-07-26T02:11:10;21.10;99.90
26537;DHT22;14204;51.262;5.488;2022-07-26T02:13:38;21.10;99.90
26537;DHT22;14204;51.262;5.488;2022-07-26T02:16:07;21.00;99.90
26537;DHT22;14204;51.262;5.488;2022-07-26T02:18:33;21.10;99.90
26537;DHT22;14204;51.262;5.488;2022-07-26T02:21:00;21.10;99.90
26537;DHT22;14204;51.262;5.488;2022-07-26T02:23:26;21.10;99.90
26537;DHT22;14204;51.262;5.488;2022-07-26T02:25:53;21.10;99.90
26537;DHT22;14204;51.262;5.488;2022-07-26T02:28:20;21.10;99.90
26537;DHT22;14204;51.262;5.488;2022-07-26T02:30:47;21.10;99.90
26537;DHT22;14204;51.262;5.488;2022-07-26T02:33:13;21.10;99.90
26537;DHT22;14204;51.262;5.488;2022-07-26T02:35:40;21.20;99.90
26537;DHT22;14204;51.262;5.488;2022-07-26T02:38:08;21.10;99.90
26537;DHT22;14204;51.262;5.488;2022-07-26T02:40:35;21.10;99.90
26537;DHT22;14204;51.262;5.488;2022-07-26T02:43:03;21.10;99.90
26537;DHT22;14204;51.262;5.488;2022-07-26T02:45:29;21.10;99.90
26537;DHT22;14204;51.262;5.488;2022-07-26T02:47:55;21.20;99.90
26537;DHT22;14204;51.262;5.488;2022-07-26T02:50:23;21.10;99.90
26537;DHT22;14204;51.262;5.488;2022-07-26T02:52:50;21.00;99.90
26537;DHT22;14204;51.262;5.488;2022-07-26T02:55:18;21.10;99.90
26537;DHT22;14204;51.262;5.488;2022-07-26T02:57:44;21.10;99.90
26537;DHT22;14204;51.262;5.488;2022-07-26T03:00:11;21.10;99.90
26537;DHT22;14204;51.262;5.488;2022-07-26T03:02:37;21.10;99.90
26537;DHT22;14204;51.262;5.488;2022-07-26T03:05:04;21.10;99.90
26537;DHT22;14204;51.262;5.488;2022-07-26T03:07:30;21.10;99.90
26537;DHT22;14204;51.262;5.488;2022-07-26T03:09:56;21.10;99.90
26537;DHT22;14204;51.262;5.488;2022-07-26T03:12:22;21.10;99.90
26537;DHT22;14204;51.262;5.488;2022-07-26T03:14:48;21.10;99.90
26537;DHT22;14204;51.262;5.488;2022-07-26T03:17:13;21.10;99.90
26537;DHT22;14204;51.262;5.488;2022-07-26T03:19:39;21.10;99.90
26537;DHT22;14204;51.262;5.488;2022-07-26T03:22:05;21.00;99.90
26537;DHT22;14204;51.262;5.488;2022-07-26T03:24:30;21.10;99.90
26537;DHT22;14204;51.262;5.488;2022-07-26T03:26:56;21.00;99.90
26537;DHT22;14204;51.262;5.488;2022-07-26T03:29:22;21.10;99.90
26537;DHT22;14204;51.262;5.488;2022-07-26T03:31:47;21.00;99.90
26537;DHT22;14204;51.262;5.488;2022-07-26T03:34:13;21.10;99.90
26537;DHT22;14204;51.262;5.488;2022-07-26T03:36:38;21.00;99.90
26537;DHT22;14204;51.262;5.488;2022-07-26T03:39:04;21.00;99.90
26537;DHT22;14204;51.262;5.488;2022-07-26T03:41:30;21.10;99.90
26537;DHT22;14204;51.262;5.488;2022-07-26T03:43:56;21.10;99.90
26537;DHT22;14204;51.262;5.488;2022-07-26T03:46:22;21.10;99.90
26537;DHT22;14204;51.262;5.488;2022-07-26T03:48:47;21.20;99.90
26537;DHT22;14204;51.262;5.488;2022-07-26T03:51:13;21.10;99.90
26537;DHT22;14204;51.262;5.488;2022-07-26T03:53:39;21.10;99.90
26537;DHT22;14204;51.262;5.488;2022-07-26T03:56:05;21.10;99.90
26537;DHT22;14204;51.262;5.488;2022-07-26T03:58:49;21.10;99.90
26537;DHT22;14204;51.262;5.488;2022-07-26T04:01:15;21.10;99.90
26537;DHT22;14204;51.262;5.488;2022-07-26T04:03:40;21.10;99.90
26537;DHT22;14204;51.262;5.488;2022-07-26T04:06:06;21.10;99.90
26537;DHT22;14204;51.262;5.488;2022-07-26T04:08:32;21.00;99.90
26537;DHT22;14204;51.262;5.488;2022-07-26T04:10:57;21.00;99.90
26537;DHT22;14204;51.262;5.488;2022-07-26T04:13:23;21.10;99.90
26537;DHT22;14204;51.262;5.488;2022-07-26T04:15:49;21.10;99.90
26537;DHT22;14204;51.262;5.488;2022-07-26T04:18:15;21.10;99.90
26537;DHT22;14204;51.262;5.488;2022-07-26T04:20:41;21.10;99.90
26537;DHT22;14204;51.262;5.488;2022-07-26T04:23:07;21.20;99.90
26537;DHT22;14204;51.262;5.488;2022-07-26T04:25:33;21.20;99.90
26537;DHT22;14204;51.262;5.488;2022-07-26T04:27:59;21.20;99.90
26537;DHT22;14204;51.262;5.488;2022-07-26T04:30:25;21.10;99.90
26537;DHT22;14204;51.262;5.488;2022-07-26T04:32:51;21.10;99.90
26537;DHT22;14204;51.262;5.488;2022-07-26T04:35:16;21.20;99.90
26537;DHT22;14204;51.262;5.488;2022-07-26T04:37:43;21.10;99.90
26537;DHT22;14204;51.262;5.488;2022-07-26T04:40:14;21.20;99.90
26537;DHT22;14204;51.262;5.488;2022-07-26T04:42:39;21.20;99.90
26537;DHT22;14204;51.262;5.488;2022-07-26T04:45:06;21.20;99.90
26537;DHT22;14204;51.262;5.488;2022-07-26T04:47:32;21.20;99.90
26537;DHT22;14204;51.262;5.488;2022-07-26T04:49:57;21.20;99.90
26537;DHT22;14204;51.262;5.488;2022-07-26T04:52:23;21.20;99.90
26537;DHT22;14204;51.262;5.488;2022-07-26T04:54:49;21.20;99.90
26537;DHT22;14204;51.262;5.488;2022-07-26T04:57:14;21.20;99.90
26537;DHT22;14204;51.262;5.488;2022-07-26T04:59:40;21.20;99.90
26537;DHT22;14204;51.262;5.488;2022-07-26T05:02:05;21.20;99.90
26537;DHT22;14204;51.262;5.488;2022-07-26T05:04:31;21.20;99.90
26537;DHT22;14204;51.262;5.488;2022-07-26T05:06:57;21.20;99.90
26537;DHT22;14204;51.262;5.488;2022-07-26T05:09:27;21.30;99.90
26537;DHT22;14204;51.262;5.488;2022-07-26T05:11:53;21.30;99.90
26537;DHT22;14204;51.262;5.488;2022-07-26T05:14:19;21.30;99.90
26537;DHT22;14204;51.262;5.488;2022-07-26T05:16:44;21.30;99.90
26537;DHT22;14204;51.262;5.488;2022-07-26T05:19:11;21.30;99.90
26537;DHT22;14204;51.262;5.488;2022-07-26T05:21:37;21.30;99.90
26537;DHT22;14204;51.262;5.488;2022-07-26T05:24:03;21.30;99.90
26537;DHT22;14204;51.262;5.488;2022-07-26T05:26:29;21.40;99.90
26537;DHT22;14204;51.262;5.488;2022-07-26T05:28:54;21.40;99.90
26537;DHT22;14204;51.262;5.488;2022-07-26T05:31:20;21.40;99.90
26537;DHT22;14204;51.262;5.488;2022-07-26T05:33:45;21.40;99.90
26537;DHT22;14204;51.262;5.488;2022-07-26T05:36:11;21.40;99.90
26537;DHT22;14204;51.262;5.488;2022-07-26T05:38:37;21.50;99.90
26537;DHT22;14204;51.262;5.488;2022-07-26T05:41:03;21.50;99.90
26537;DHT22;14204;51.262;5.488;2022-07-26T05:43:28;21.50;99.90
26537;DHT22;14204;51.262;5.488;2022-07-26T05:45:56;21.50;99.90
26537;DHT22;14204;51.262;5.488;2022-07-26T05:48:22;21.50;99.90
26537;DHT22;14204;51.262;5.488;2022-07-26T05:50:47;21.50;99.90
26537;DHT22;14204;51.262;5.488;2022-07-26T05:53:13;21.60;99.90
26537;DHT22;14204;51.262;5.488;2022-07-26T05:55:38;21.60;99.90
26537;DHT22;14204;51.262;5.488;2022-07-26T05:58:04;21.60;99.90
26537;DHT22;14204;51.262;5.488;2022-07-26T06:00:30;21.60;99.90
26537;DHT22;14204;51.262;5.488;2022-07-26T06:02:55;21.60;99.90
26537;DHT22;14204;51.262;5.488;2022-07-26T06:05:21;21.70;99.90
26537;DHT22;14204;51.262;5.488;2022-07-26T06:07:47;21.70;99.90
26537;DHT22;14204;51.262;5.488;2022-07-26T06:10:13;21.80;99.90
26537;DHT22;14204;51.262;5.488;2022-07-26T06:12:39;21.80;99.90
26537;DHT22;14204;51.262;5.488;2022-07-26T06:15:05;21.80;99.90
26537;DHT22;14204;51.262;5.488;2022-07-26T06:17:31;21.70;99.90
26537;DHT22;14204;51.262;5.488;2022-07-26T06:19:58;21.70;99.90
26537;DHT22;14204;51.262;5.488;2022-07-26T06:22:24;21.80;99.90
26537;DHT22;14204;51.262;5.488;2022-07-26T06:24:52;21.80;99.90
26537;DHT22;14204;51.262;5.488;2022-07-26T06:27:18;21.90;99.90
26537;DHT22;14204;51.262;5.488;2022-07-26T06:29:46;21.90;99.90
26537;DHT22;14204;51.262;5.488;2022-07-26T06:32:13;22.10;99.90
26537;DHT22;14204;51.262;5.488;2022-07-26T06:34:39;22.10;99.90
26537;DHT22;14204;51.262;5.488;2022-07-26T06:37:05;22.10;99.90
26537;DHT22;14204;51.262;5.488;2022-07-26T06:39:31;22.10;99.90
26537;DHT22;14204;51.262;5.488;2022-07-26T06:41:58;22.10;99.90
26537;DHT22;14204;51.262;5.488;2022-07-26T06:44:26;22.00;99.90
26537;DHT22;14204;51.262;5.488;2022-07-26T06:46:53;21.90;99.90
26537;DHT22;14204;51.262;5.488;2022-07-26T06:49:19;21.90;99.90
26537;DHT22;14204;51.262;5.488;2022-07-26T06:51:45;21.90;99.90
26537;DHT22;14204;51.262;5.488;2022-07-26T06:54:11;21.90;99.90
26537;DHT22;14204;51.262;5.488;2022-07-26T06:56:37;21.90;99.90
26537;DHT22;14204;51.262;5.488;2022-07-26T06:59:03;22.10;99.90
26537;DHT22;14204;51.262;5.488;2022-07-26T07:01:28;22.10;99.90
26537;DHT22;14204;51.262;5.488;2022-07-26T07:03:54;22.10;99.90
26537;DHT22;14204;51.262;5.488;2022-07-26T07:06:19;22.10;99.90
26537;DHT22;14204;51.262;5.488;2022-07-26T07:08:47;22.00;99.90
26537;DHT22;14204;51.262;5.488;2022-07-26T07:11:13;22.10;99.90
26537;DHT22;14204;51.262;5.488;2022-07-26T07:13:39;22.10;99.90
26537;DHT22;14204;51.262;5.488;2022-07-26T07:16:05;22.10;99.90
26537;DHT22;14204;51.262;5.488;2022-07-26T07:18:31;22.20;99.90
26537;DHT22;14204;51.262;5.488;2022-07-26T07:20:56;22.40;99.90
26537;DHT22;14204;51.262;5.488;2022-07-26T07:23:22;22.40;99.90
26537;DHT22;14204;51.262;5.488;2022-07-26T07:25:48;22.40;99.90
26537;DHT22;14204;51.262;5.488;2022-07-26T07:28:14;22.40;99.90
26537;DHT22;14204;51.262;5.488;2022-07-26T07:30:40;22.30;99.90
26537;DHT22;14204;51.262;5.488;2022-07-26T07:33:06;22.20;99.90
26537;DHT22;14204;51.262;5.488;2022-07-26T07:35:33;22.30;99.90
26537;DHT22;14204;51.262;5.488;2022-07-26T07:37:59;22.30;99.90
26537;DHT22;14204;51.262;5.488;2022-07-26T07:40:25;22.40;99.90
26537;DHT22;14204;51.262;5.488;2022-07-26T07:42:50;22.40;99.90
26537;DHT22;14204;51.262;5.488;2022-07-26T07:45:16;22.40;99.90
26537;DHT22;14204;51.262;5.488;2022-07-26T07:47:42;22.30;99.90
26537;DHT22;14204;51.262;5.488;2022-07-26T07:50:08;22.60;99.90
26537;DHT22;14204;51.262;5.488;2022-07-26T07:52:33;22.80;99.90
26537;DHT22;14204;51.262;5.488;2022-07-26T07:54:59;22.80;99.90
26537;DHT22;14204;51.262;5.488;2022-07-26T07:57:25;22.70;99.90
26537;DHT22;14204;51.262;5.488;2022-07-26T07:59:50;22.90;99.90
26537;DHT22;14204;51.262;5.488;2022-07-26T08:02:16;23.00;99.90
26537;DHT22;14204;51.262;5.488;2022-07-26T08:04:41;23.00;99.90
26537;DHT22;14204;51.262;5.488;2022-07-26T08:07:07;22.90;99.90
26537;DHT22;14204;51.262;5.488;2022-07-26T08:09:33;22.90;99.90
26537;DHT22;14204;51.262;5.488;2022-07-26T08:11:59;23.00;99.90
26537;DHT22;14204;51.262;5.488;2022-07-26T08:14:24;23.00;99.90
26537;DHT22;14204;51.262;5.488;2022-07-26T08:16:50;23.10;99.90
26537;DHT22;14204;51.262;5.488;2022-07-26T08:19:16;23.20;99.90
26537;DHT22;14204;51.262;5.488;2022-07-26T08:21:42;23.10;99.90
26537;DHT22;14204;51.262;5.488;2022-07-26T08:24:10;23.10;99.90
26537;DHT22;14204;51.262;5.488;2022-07-26T08:26:36;23.10;99.90
26537;DHT22;14204;51.262;5.488;2022-07-26T08:29:02;23.10;99.90
26537;DHT22;14204;51.262;5.488;2022-07-26T08:31:28;23.00;99.90
26537;DHT22;14204;51.262;5.488;2022-07-26T08:33:53;23.00;99.90
26537;DHT22;14204;51.262;5.488;2022-07-26T08:36:19;23.00;99.90
26537;DHT22;14204;51.262;5.488;2022-07-26T08:38:45;23.00;99.90
26537;DHT22;14204;51.262;5.488;2022-07-26T08:41:11;23.10;99.90
26537;DHT22;14204;51.262;5.488;2022-07-26T08:43:37;23.20;99.90
26537;DHT22;14204;51.262;5.488;2022-07-26T08:46:02;23.20;99.90
26537;DHT22;14204;51.262;5.488;2022-07-26T08:48:29;23.40;99.90
26537;DHT22;14204;51.262;5.488;2022-07-26T08:50:56;23.50;99.90
26537;DHT22;14204;51.262;5.488;2022-07-26T08:53:23;23.60;99.90
26537;DHT22;14204;51.262;5.488;2022-07-26T08:55:48;23.70;99.90
26537;DHT22;14204;51.262;5.488;2022-07-26T08:58:14;23.80;99.90
26537;DHT22;14204;51.262;5.488;2022-07-26T09:00:39;24.00;99.90
26537;DHT22;14204;51.262;5.488;2022-07-26T09:03:23;24.10;99.90
26537;DHT22;14204;51.262;5.488;2022-07-26T09:05:49;24.40;99.90
26537;DHT22;14204;51.262;5.488;2022-07-26T09:08:26;24.80;99.90
26537;DHT22;14204;51.262;5.488;2022-07-26T09:10:53;25.00;99.90
26537;DHT22;14204;51.262;5.488;2022-07-26T09:13:19;25.00;99.90
26537;DHT22;14204;51.262;5.488;2022-07-26T09:15:45;25.10;99.90
26537;DHT22;14204;51.262;5.488;2022-07-26T09:18:29;25.10;99.90
26537;DHT22;14204;51.262;5.488;2022-07-26T09:20:54;25.10;99.90
26537;DHT22;14204;51.262;5.488;2022-07-26T09:23:21;24.90;99.90
26537;DHT22;14204;51.262;5.488;2022-07-26T09:25:47;24.80;99.90
26537;DHT22;14204;51.262;5.488;2022-07-26T09:28:26;24.60;99.90
26537;DHT22;14204;51.262;5.488;2022-07-26T09:30:54;24.80;99.90
26537;DHT22;14204;51.262;5.488;2022-07-26T09:33:20;24.80;99.90
26537;DHT22;14204;51.262;5.488;2022-07-26T09:36:03;24.60;99.90
26537;DHT22;14204;51.262;5.488;2022-07-26T09:38:53;24.70;99.30
26537;DHT22;14204;51.262;5.488;2022-07-26T09:41:33;24.70;99.90
26537;DHT22;14204;51.262;5.488;2022-07-26T09:44:04;24.80;99.90
26537;DHT22;14204;51.262;5.488;2022-07-26T09:46:32;24.80;99.50
26537;DHT22;14204;51.262;5.488;2022-07-26T09:49:16;24.80;99.80
26537;DHT22;14204;51.262;5.488;2022-07-26T09:51:44;24.60;99.20
26537;DHT22;14204;51.262;5.488;2022-07-26T09:54:16;24.50;99.80
26537;DHT22;14204;51.262;5.488;2022-07-26T09:56:45;24.50;99.90
26537;DHT22;14204;51.262;5.488;2022-07-26T09:59:16;24.50;99.90
26537;DHT22;14204;51.262;5.488;2022-07-26T10:01:43;24.50;99.90
26537;DHT22;14204;51.262;5.488;2022-07-26T10:04:08;24.50;99.90
26537;DHT22;14204;51.262;5.488;2022-07-26T10:06:34;24.30;99.90
26537;DHT22;14204;51.262;5.488;2022-07-26T10:09:00;24.20;99.90
26537;DHT22;14204;51.262;5.488;2022-07-26T10:11:31;24.20;99.90
26537;DHT22;14204;51.262;5.488;2022-07-26T10:13:59;24.30;99.90
26537;DHT22;14204;51.262;5.488;2022-07-26T10:16:31;24.40;99.90
26537;DHT22;14204;51.262;5.488;2022-07-26T10:18:58;24.50;99.90
26537;DHT22;14204;51.262;5.488;2022-07-26T10:21:25;24.50;99.90
26537;DHT22;14204;51.262;5.488;2022-07-26T10:23:54;24.50;99.90
26537;DHT22;14204;51.262;5.488;2022-07-26T10:31:47;24.90;99.90
26537;DHT22;14204;51.262;5.488;2022-07-26T10:37:19;25.00;99.90
26537;DHT22;14204;51.262;5.488;2022-07-26T10:39:44;25.10;99.90
26537;DHT22;14204;51.262;5.488;2022-07-26T10:42:10;25.50;99.90
26537;DHT22;14204;51.262;5.488;2022-07-26T10:44:38;25.50;99.90
26537;DHT22;14204;51.262;5.488;2022-07-26T10:54:30;25.00;99.90
26537;DHT22;14204;51.262;5.488;2022-07-26T10:56:57;24.80;99.90
26537;DHT22;14204;51.262;5.488;2022-07-26T10:59:32;24.60;99.90
26537;DHT22;14204;51.262;5.488;2022-07-26T11:01:57;24.20;99.90
26537;DHT22;14204;51.262;5.488;2022-07-26T11:04:24;24.20;99.90
26537;DHT22;14204;51.262;5.488;2022-07-26T11:06:50;24.00;99.90
26537;DHT22;14204;51.262;5.488;2022-07-26T11:09:16;23.90;99.90
26537;DHT22;14204;51.262;5.488;2022-07-26T11:11:48;23.80;99.90
26537;DHT22;14204;51.262;5.488;2022-07-26T11:14:18;23.90;99.90
26537;DHT22;14204;51.262;5.488;2022-07-26T11:16:49;24.00;99.90
26537;DHT22;14204;51.262;5.488;2022-07-26T11:19:22;24.10;99.90
26537;DHT22;14204;51.262;5.488;2022-07-26T11:22:01;24.10;99.90
26537;DHT22;14204;51.262;5.488;2022-07-26T11:24:27;24.20;99.90
26537;DHT22;14204;51.262;5.488;2022-07-26T11:26:53;24.20;99.90
26537;DHT22;14204;51.262;5.488;2022-07-26T11:29:40;24.00;99.90
26537;DHT22;14204;51.262;5.488;2022-07-26T11:32:14;23.90;99.90
26537;DHT22;14204;51.262;5.488;2022-07-26T11:34:42;23.80;99.90
26537;DHT22;14204;51.262;5.488;2022-07-26T11:37:12;23.80;99.90
26537;DHT22;14204;51.262;5.488;2022-07-26T11:39:39;23.70;99.90
26537;DHT22;14204;51.262;5.488;2022-07-26T11:42:09;23.60;99.90
26537;DHT22;14204;51.262;5.488;2022-07-26T11:44:42;23.60;99.90
26537;DHT22;14204;51.262;5.488;2022-07-26T11:47:17;23.50;99.90
26537;DHT22;14204;51.262;5.488;2022-07-26T11:49:47;23.40;99.90
26537;DHT22;14204;51.262;5.488;2022-07-26T11:52:13;23.30;99.90
26537;DHT22;14204;51.262;5.488;2022-07-26T11:54:48;23.40;99.90
26537;DHT22;14204;51.262;5.488;2022-07-26T11:57:16;23.30;99.90
26537;DHT22;14204;51.262;5.488;2022-07-26T11:59:46;23.20;99.90
26537;DHT22;14204;51.262;5.488;2022-07-26T12:02:15;23.20;99.90
26537;DHT22;14204;51.262;5.488;2022-07-26T12:04:42;23.30;99.90
26537;DHT22;14204;51.262;5.488;2022-07-26T12:07:12;23.20;99.90
26537;DHT22;14204;51.262;5.488;2022-07-26T12:09:49;23.20;99.90
26537;DHT22;14204;51.262;5.488;2022-07-26T12:12:20;23.20;99.90
26537;DHT22;14204;51.262;5.488;2022-07-26T12:14:59;23.20;99.90
26537;DHT22;14204;51.262;5.488;2022-07-26T12:17:26;23.30;99.90
26537;DHT22;14204;51.262;5.488;2022-07-26T12:19:53;23.40;99.90
26537;DHT22;14204;51.262;5.488;2022-07-26T12:22:21;23.40;99.90
26537;DHT22;14204;51.262;5.488;2022-07-26T12:24:55;23.30;99.90
26537;DHT22;14204;51.262;5.488;2022-07-26T12:27:29;23.40;99.90
26537;DHT22;14204;51.262;5.488;2022-07-26T12:30:14;23.40;99.90
26537;DHT22;14204;51.262;5.488;2022-07-26T12:32:43;23.30;99.90
26537;DHT22;14204;51.262;5.488;2022-07-26T12:35:12;23.30;99.90
26537;DHT22;14204;51.262;5.488;2022-07-26T12:40:11;23.40;99.90
26537;DHT22;14204;51.262;5.488;2022-07-26T12:42:39;23.20;99.90
26537;DHT22;14204;51.262;5.488;2022-07-26T12:45:07;23.20;99.90
26537;DHT22;14204;51.262;5.488;2022-07-26T12:47:38;23.20;99.90
26537;DHT22;14204;51.262;5.488;2022-07-26T12:50:05;23.20;99.90
26537;DHT22;14204;51.262;5.488;2022-07-26T12:52:32;23.10;99.90
26537;DHT22;14204;51.262;5.488;2022-07-26T12:55:03;23.00;99.90
26537;DHT22;14204;51.262;5.488;2022-07-26T12:57:29;23.00;99.90
26537;DHT22;14204;51.262;5.488;2022-07-26T12:59:55;23.00;99.90
26537;DHT22;14204;51.262;5.488;2022-07-26T13:02:22;23.00;99.90
26537;DHT22;14204;51.262;5.488;2022-07-26T13:04:48;22.90;99.90
26537;DHT22;14204;51.262;5.488;2022-07-26T13:07:15;22.80;99.90
26537;DHT22;14204;51.262;5.488;2022-07-26T13:09:42;22.80;99.90
26537;DHT22;14204;51.262;5.488;2022-07-26T13:12:09;22.70;99.90
26537;DHT22;14204;51.262;5.488;2022-07-26T13:14:36;22.60;99.90
26537;DHT22;14204;51.262;5.488;2022-07-26T13:17:02;22.60;99.90
26537;DHT22;14204;51.262;5.488;2022-07-26T13:19:29;22.70;99.90
26537;DHT22;14204;51.262;5.488;2022-07-26T13:21:56;22.60;99.90
26537;DHT22;14204;51.262;5.488;2022-07-26T13:24:26;22.60;99.90
26537;DHT22;14204;51.262;5.488;2022-07-26T13:26:52;22.50;99.90
26537;DHT22;14204;51.262;5.488;2022-07-26T13:29:18;22.40;99.90
26537;DHT22;14204;51.262;5.488;2022-07-26T13:31:44;22.40;99.90
26537;DHT22;14204;51.262;5.488;2022-07-26T13:34:10;22.40;99.90
26537;DHT22;14204;51.262;5.488;2022-07-26T13:36:36;22.30;99.90
26537;DHT22;14204;51.262;5.488;2022-07-26T13:39:02;22.30;99.90
26537;DHT22;14204;51.262;5.488;2022-07-26T13:41:28;22.20;99.90
26537;DHT22;14204;51.262;5.488;2022-07-26T13:43:54;22.30;99.90
26537;DHT22;14204;51.262;5.488;2022-07-26T13:46:20;22.20;99.90
26537;DHT22;14204;51.262;5.488;2022-07-26T13:48:46;22.20;99.90
26537;DHT22;14204;51.262;5.488;2022-07-26T13:51:12;22.20;99.90
26537;DHT22;14204;51.262;5.488;2022-07-26T13:53:38;22.10;99.90
26537;DHT22;14204;51.262;5.488;2022-07-26T13:56:04;22.20;99.90
26537;DHT22;14204;51.262;5.488;2022-07-26T13:58:30;22.20;99.90
26537;DHT22;14204;51.262;5.488;2022-07-26T14:00:57;22.20;99.90
26537;DHT22;14204;51.262;5.488;2022-07-26T14:03:22;22.30;99.90
26537;DHT22;14204;51.262;5.488;2022-07-26T14:05:48;22.30;99.90
26537;DHT22;14204;51.262;5.488;2022-07-26T14:08:14;22.40;99.90
26537;DHT22;14204;51.262;5.488;2022-07-26T14:10:39;22.40;99.90
26537;DHT22;14204;51.262;5.488;2022-07-26T14:13:06;22.40;99.90
26537;DHT22;14204;51.262;5.488;2022-07-26T14:15:33;22.40;99.90
26537;DHT22;14204;51.262;5.488;2022-07-26T14:17:58;22.50;99.90
26537;DHT22;14204;51.262;5.488;2022-07-26T14:20:24;22.50;99.90
26537;DHT22;14204;51.262;5.488;2022-07-26T14:22:50;22.50;99.90
26537;DHT22;14204;51.262;5.488;2022-07-26T14:25:26;22.60;99.90
26537;DHT22;14204;51.262;5.488;2022-07-26T14:27:52;22.50;99.90
26537;DHT22;14204;51.262;5.488;2022-07-26T14:30:19;22.50;99.90
26537;DHT22;14204;51.262;5.488;2022-07-26T14:32:45;22.50;99.90
26537;DHT22;14204;51.262;5.488;2022-07-26T14:35:12;22.40;99.90
26537;DHT22;14204;51.262;5.488;2022-07-26T14:37:40;22.50;99.90
26537;DHT22;14204;51.262;5.488;2022-07-26T14:40:07;22.40;99.90
26537;DHT22;14204;51.262;5.488;2022-07-26T14:42:32;22.30;99.90
26537;DHT22;14204;51.262;5.488;2022-07-26T14:44:58;22.30;99.90
26537;DHT22;14204;51.262;5.488;2022-07-26T14:47:24;22.20;99.90
26537;DHT22;14204;51.262;5.488;2022-07-26T14:49:49;22.30;99.90
26537;DHT22;14204;51.262;5.488;2022-07-26T14:52:15;22.20;99.90
26537;DHT22;14204;51.262;5.488;2022-07-26T14:54:41;22.10;99.90
26537;DHT22;14204;51.262;5.488;2022-07-26T14:57:07;22.10;99.90
26537;DHT22;14204;51.262;5.488;2022-07-26T14:59:32;22.10;99.90
26537;DHT22;14204;51.262;5.488;2022-07-26T15:01:58;22.20;99.90
26537;DHT22;14204;51.262;5.488;2022-07-26T15:04:24;22.30;99.90
26537;DHT22;14204;51.262;5.488;2022-07-26T15:06:49;22.30;99.90
26537;DHT22;14204;51.262;5.488;2022-07-26T15:09:15;22.50;99.90
26537;DHT22;14204;51.262;5.488;2022-07-26T15:11:41;22.60;99.90
26537;DHT22;14204;51.262;5.488;2022-07-26T15:14:07;22.60;99.90
26537;DHT22;14204;51.262;5.488;2022-07-26T15:16:32;22.70;99.90
26537;DHT22;14204;51.262;5.488;2022-07-26T15:18:58;22.70;99.90
26537;DHT22;14204;51.262;5.488;2022-07-26T15:21:24;22.70;99.90
26537;DHT22;14204;51.262;5.488;2022-07-26T15:23:49;22.80;99.90
26537;DHT22;14204;51.262;5.488;2022-07-26T15:26:15;22.80;99.90
26537;DHT22;14204;51.262;5.488;2022-07-26T15:28:40;22.70;99.90
26537;DHT22;14204;51.262;5.488;2022-07-26T15:31:09;22.70;99.90
26537;DHT22;14204;51.262;5.488;2022-07-26T15:33:34;22.70;99.90
26537;DHT22;14204;51.262;5.488;2022-07-26T15:36:00;22.70;99.90
26537;DHT22;14204;51.262;5.488;2022-07-26T15:38:26;22.80;99.90
26537;DHT22;14204;51.262;5.488;2022-07-26T15:40:51;22.90;99.90
26537;DHT22;14204;51.262;5.488;2022-07-26T15:43:21;22.80;99.90
26537;DHT22;14204;51.262;5.488;2022-07-26T15:45:47;22.90;99.90
26537;DHT22;14204;51.262;5.488;2022-07-26T15:48:13;22.90;99.90